Arlington, Kentucky
Current Conditions -  °F | °C
As of 10:15 AM on Thursday 23 Oct 2014 (Local Time) from KCIR Reporting Station
Clear Clear  
Wind Chill: 57°   Ceiling: Unl
Heat Index: 57°   Visibility: 10mi
Dew Point: 49°   Wind: 9mph
Humidity: 74%   Direction: 140°SE
Pressure: 30.25"   Gusts: NA
Location:  36.79°N, 89.01°W
Report Text: KCIR 231515Z AUTO 14008KT 10SM CLR 14/09 A3025 RMK AO2 T01380092
Loading
Personal Weather Stations






























Interactive Weather Map New forecast layout! Learn more

10-Day Weather Forecast

Advertisements
Track Severe Weather on mobile